createdAt,value
2019-05-26T00:01:43.175Z,99679.52
2019-05-26T00:05:47.423Z,99676.13
2019-05-26T00:09:51.644Z,99679.70
2019-05-26T00:13:55.878Z,99671.40
2019-05-26T00:18:00.082Z,99664.48
2019-05-26T00:22:04.402Z,99671.59
2019-05-26T00:26:08.641Z,99681.35
2019-05-26T00:30:13.614Z,99680.41
2019-05-26T00:34:17.876Z,99682.59
2019-05-26T00:38:22.182Z,99679.97
2019-05-26T00:42:26.469Z,99684.36
2019-05-26T00:46:30.745Z,99680.41
2019-05-26T00:50:35.246Z,99675.77
2019-05-26T00:54:39.579Z,99679.34
2019-05-26T00:58:43.800Z,99685.55
2019-05-26T01:02:48.058Z,99681.55
2019-05-26T01:06:52.363Z,99679.48
2019-05-26T01:10:56.656Z,99682.37
2019-05-26T01:15:00.937Z,99687.80
2019-05-26T01:19:05.344Z,99684.31
2019-05-26T01:23:09.545Z,99691.38
2019-05-26T01:27:13.930Z,99687.59
2019-05-26T01:31:18.168Z,99690.72
2019-05-26T01:35:22.384Z,99691.62
2019-05-26T01:39:26.763Z,99690.77
2019-05-26T01:43:31.302Z,99693.88
2019-05-26T01:47:35.551Z,99694.77
2019-05-26T01:51:39.771Z,99702.64
2019-05-26T01:55:43.963Z,99701.31
2019-05-26T01:59:48.199Z,99700.97
2019-05-26T02:03:52.528Z,99704.10
2019-05-26T02:07:56.789Z,99705.88
2019-05-26T02:12:01.184Z,99704.58
2019-05-26T02:16:05.967Z,99706.95
2019-05-26T02:20:11.259Z,99697.83
2019-05-26T02:24:15.633Z,99698.31
2019-05-26T02:28:20.014Z,99699.65
2019-05-26T02:32:24.242Z,99700.55
2019-05-26T02:36:28.484Z,99708.55
2019-05-26T02:40:32.731Z,99706.73
2019-05-26T02:44:36.984Z,99696.94
2019-05-26T02:48:41.232Z,99702.73
2019-05-26T02:52:45.400Z,99705.88
2019-05-26T02:56:49.728Z,99708.20
2019-05-26T03:00:53.974Z,99714.13
2019-05-26T03:04:58.211Z,99705.83
2019-05-26T03:09:21.763Z,99712.58
2019-05-26T03:13:14.569Z,99712.70
2019-05-26T03:17:19.804Z,99715.88
2019-05-26T03:21:27.496Z,99716.35
2019-05-26T03:25:33.782Z,99719.53
2019-05-26T03:29:37.967Z,99709.77
2019-05-26T03:33:42.203Z,99717.77
2019-05-26T03:37:46.408Z,99717.29
2019-05-26T03:41:50.730Z,99719.02
2019-05-26T03:46:17.954Z,99716.27
2019-05-26T03:50:22.132Z,99715.75
2019-05-26T03:54:26.515Z,99718.37
2019-05-26T03:58:30.738Z,99717.05
2019-05-26T04:02:34.993Z,99723.75
2019-05-26T04:06:39.263Z,99728.17
2019-05-26T04:10:43.487Z,99731.79
2019-05-26T04:14:47.715Z,99730.88
2019-05-26T04:18:51.963Z,99738.45
2019-05-26T04:22:56.213Z,99742.41
2019-05-26T04:27:00.455Z,99754.32
2019-05-26T04:31:04.871Z,99750.32
2019-05-26T04:35:09.271Z,99759.06
2019-05-26T04:39:33.904Z,99760.78
2019-05-26T04:43:38.159Z,99757.84
2019-05-26T04:47:42.401Z,99762.83
2019-05-26T04:51:46.661Z,99759.69
2019-05-26T04:55:50.853Z,99764.55
2019-05-26T04:59:55.092Z,99754.72
2019-05-26T05:03:59.311Z,99764.05
2019-05-26T05:08:03.621Z,99761.77
2019-05-26T05:12:08.017Z,99757.25
2019-05-26T05:16:12.293Z,99769.64
2019-05-26T05:20:16.555Z,99769.59
2019-05-26T05:24:20.824Z,99769.95
2019-05-26T05:28:25.050Z,99765.91
2019-05-26T05:32:32.750Z,99771.54
2019-05-26T05:36:35.320Z,99758.95
2019-05-26T05:40:39.892Z,99761.78
2019-05-26T05:44:44.095Z,99769.83
2019-05-26T05:48:48.337Z,99766.56
2019-05-26T05:52:52.598Z,99773.52
2019-05-26T05:56:56.819Z,99778.63
2019-05-26T06:01:02.629Z,99781.16
2019-05-26T06:05:07.441Z,99779.02
2019-05-26T06:09:11.814Z,99791.18
2019-05-26T06:13:16.093Z,99793.66
2019-05-26T06:17:20.460Z,99789.12
2019-05-26T06:21:25.687Z,99790.51
2019-05-26T06:25:29.911Z,99789.59
2019-05-26T06:29:34.270Z,99783.25
2019-05-26T06:33:38.471Z,99794.30
2019-05-26T06:37:42.690Z,99796.95
2019-05-26T06:41:46.884Z,99791.42
2019-05-26T06:45:51.162Z,99787.97
2019-05-26T06:49:55.381Z,99791.23
2019-05-26T06:53:59.639Z,99786.31
2019-05-26T06:58:03.865Z,99785.83
2019-05-26T07:02:08.139Z,99789.80
2019-05-26T07:06:12.475Z,99783.04
2019-05-26T07:10:17.938Z,99788.31
2019-05-26T07:14:22.146Z,99786.38
2019-05-26T07:18:26.422Z,99789.09
2019-05-26T07:22:31.006Z,99792.59
2019-05-26T07:26:35.375Z,99794.33
2019-05-26T07:30:39.649Z,99796.09
2019-05-26T07:34:43.902Z,99793.68
2019-05-26T07:38:48.165Z,99790.62
2019-05-26T07:42:52.577Z,99794.64
2019-05-26T07:46:56.822Z,99804.30
2019-05-26T07:51:01.047Z,99794.97
2019-05-26T07:55:05.835Z,99790.58
2019-05-26T07:59:10.028Z,99789.70
2019-05-26T08:03:14.290Z,99785.30
2019-05-26T08:07:18.691Z,99785.00
2019-05-26T08:11:23.039Z,99773.84
2019-05-26T08:15:27.670Z,99780.31
2019-05-26T08:19:31.969Z,99770.41
2019-05-26T08:23:36.208Z,99778.89
2019-05-26T08:27:40.427Z,99782.13
2019-05-26T08:31:44.812Z,99784.59
2019-05-26T08:35:49.101Z,99790.05
2019-05-26T08:39:53.301Z,99788.73
2019-05-26T08:43:57.611Z,99794.03
2019-05-26T08:48:01.923Z,99789.73
2019-05-26T08:52:06.117Z,99785.09
2019-05-26T08:56:10.356Z,99784.22
2019-05-26T09:00:16.714Z,99779.86
2019-05-26T09:04:20.991Z,99777.47
2019-05-26T09:08:25.431Z,99781.11
2019-05-26T09:12:29.637Z,99776.95
2019-05-26T09:16:34.486Z,99774.80
2019-05-26T09:20:39.248Z,99769.91
2019-05-26T09:24:44.123Z,99771.86
2019-05-26T09:28:49.990Z,99769.22
2019-05-26T09:32:55.307Z,99779.36
2019-05-26T09:37:00.077Z,99774.42
2019-05-26T09:41:04.407Z,99777.14
2019-05-26T09:45:09.202Z,99781.18
2019-05-26T09:49:13.449Z,99772.37
2019-05-26T09:53:17.998Z,99772.59
2019-05-26T09:57:22.214Z,99771.81
2019-05-26T10:01:26.496Z,99761.36
2019-05-26T10:05:30.757Z,99768.48
2019-05-26T10:09:35.357Z,99761.62
2019-05-26T10:13:39.632Z,99761.29
2019-05-26T10:17:44.290Z,99756.70
2019-05-26T10:21:48.566Z,99751.17
2019-05-26T10:25:52.794Z,99756.17
2019-05-26T10:29:57.129Z,99758.60
2019-05-26T10:34:01.370Z,99752.59
2019-05-26T10:38:05.811Z,99741.38
2019-05-26T10:42:10.188Z,99739.22
2019-05-26T10:46:14.492Z,99735.64
2019-05-26T10:50:18.946Z,99729.75
2019-05-26T10:54:23.407Z,99726.06
2019-05-26T10:58:28.227Z,99723.83
2019-05-26T11:02:32.422Z,99720.97
2019-05-26T11:06:37.107Z,99717.13
2019-05-26T11:10:41.542Z,99719.94
2019-05-26T11:14:46.020Z,99711.70
2019-05-26T11:18:50.595Z,99713.94
2019-05-26T11:22:54.882Z,99699.59
2019-05-26T11:27:07.991Z,99695.64
2019-05-26T11:31:05.488Z,99690.19
2019-05-26T11:35:10.212Z,99685.61
2019-05-26T11:39:14.487Z,99677.41
2019-05-26T11:43:18.765Z,99683.20
2019-05-26T11:47:23.015Z,99671.89
2019-05-26T11:51:27.290Z,99664.41
2019-05-26T11:55:31.588Z,99658.02
2019-05-26T11:59:35.802Z,99641.69
2019-05-26T12:03:40.041Z,99651.17
2019-05-26T12:07:44.300Z,99643.02
2019-05-26T12:11:48.530Z,99649.62
2019-05-26T12:15:52.823Z,99650.09
2019-05-26T12:19:57.086Z,99645.13
2019-05-26T12:24:01.312Z,99641.83
2019-05-26T12:28:05.646Z,99643.49
2019-05-26T12:32:10.069Z,99634.33
2019-05-26T12:36:14.753Z,99630.20
2019-05-26T12:40:19.106Z,99624.02
2019-05-26T12:44:23.440Z,99624.52
2019-05-26T12:48:27.738Z,99625.84
2019-05-26T12:52:32.071Z,99623.15
2019-05-26T12:56:36.902Z,99615.17
2019-05-26T13:00:48.646Z,99621.23
2019-05-26T13:04:47.205Z,99618.25
2019-05-26T13:08:51.488Z,99614.35
2019-05-26T13:12:55.750Z,99602.49
2019-05-26T13:17:01.617Z,99595.55
2019-05-26T13:21:06.066Z,99591.40
2019-05-26T13:25:11.104Z,99594.22
2019-05-26T13:29:15.487Z,99588.85
2019-05-26T13:33:19.722Z,99589.80
2019-05-26T13:37:24.029Z,99586.25
2019-05-26T13:41:28.243Z,99578.62
2019-05-26T13:45:33.986Z,99580.30
2019-05-26T13:49:39.604Z,99578.15
2019-05-26T13:53:43.862Z,99577.38
2019-05-26T13:57:49.531Z,99585.59
2019-05-26T14:01:54.286Z,99588.57
2019-05-26T14:05:58.549Z,99581.06
2019-05-26T14:10:02.771Z,99585.86
2019-05-26T14:14:07.501Z,99587.80
2019-05-26T14:18:11.769Z,99582.58
2019-05-26T14:22:16.134Z,99587.48
2019-05-26T14:26:21.839Z,99596.05
2019-05-26T14:30:26.158Z,99596.05
2019-05-26T14:34:30.543Z,99602.11
2019-05-26T14:38:43.175Z,99599.67
2019-05-26T14:42:41.034Z,99596.08
2019-05-26T14:46:45.260Z,99602.03
2019-05-26T14:50:49.528Z,99598.66
2019-05-26T14:54:53.822Z,99602.97
2019-05-26T14:58:58.128Z,99606.58
2019-05-26T15:03:02.392Z,99606.83
2019-05-26T15:07:06.796Z,99619.52
2019-05-26T15:11:11.383Z,99625.20
2019-05-26T15:15:17.194Z,99623.38
2019-05-26T15:19:21.496Z,99619.25
2019-05-26T15:23:25.755Z,99613.64
2019-05-26T15:27:30.033Z,99616.08
2019-05-26T15:31:34.279Z,99613.72
2019-05-26T15:35:38.639Z,99614.03
2019-05-26T15:39:42.955Z,99612.54
2019-05-26T15:43:47.242Z,99617.12
2019-05-26T15:47:51.647Z,99615.53
2019-05-26T15:51:55.879Z,99605.42
2019-05-26T15:56:00.548Z,99603.86
2019-05-26T16:00:05.894Z,99601.17
2019-05-26T16:04:10.282Z,99602.11
2019-05-26T16:08:15.014Z,99597.15
2019-05-26T16:12:19.434Z,99612.85
2019-05-26T16:16:38.183Z,99610.24
2019-05-26T16:20:31.144Z,99616.58
2019-05-26T16:24:35.645Z,99613.08
2019-05-26T16:28:39.922Z,99607.89
2019-05-26T16:32:44.384Z,99605.98
2019-05-26T16:36:48.659Z,99602.33
2019-05-26T16:40:52.907Z,99607.55
2019-05-26T16:44:57.237Z,99607.70
2019-05-26T16:49:01.489Z,99603.25
2019-05-26T16:53:05.916Z,99601.19
2019-05-26T16:57:10.176Z,99593.05
2019-05-26T17:01:15.667Z,99586.87
2019-05-26T17:05:19.952Z,99582.47
2019-05-26T17:09:24.154Z,99573.15
2019-05-26T17:13:28.408Z,99573.22
2019-05-26T17:17:32.745Z,99568.41
2019-05-26T17:21:37.234Z,99563.05
2019-05-26T17:25:41.523Z,99565.31
2019-05-26T17:29:45.793Z,99562.41
2019-05-26T17:33:50.105Z,99570.50
2019-05-26T17:37:55.407Z,99576.16
2019-05-26T17:41:59.798Z,99573.79
2019-05-26T17:46:04.436Z,99565.47
2019-05-26T17:50:09.326Z,99568.88
2019-05-26T17:54:13.636Z,99568.54
2019-05-26T17:58:17.922Z,99562.05
2019-05-26T18:02:22.357Z,99567.58
2019-05-26T18:06:26.785Z,99559.23
2019-05-26T18:10:31.439Z,99561.27
2019-05-26T18:14:36.305Z,99552.91
2019-05-26T18:18:40.810Z,99550.98
2019-05-26T18:22:45.082Z,99550.47
2019-05-26T18:26:49.362Z,99550.61
2019-05-26T18:30:53.757Z,99552.91
2019-05-26T18:34:58.480Z,99548.16
2019-05-26T18:39:02.908Z,99553.73
2019-05-26T18:43:07.294Z,99551.73
2019-05-26T18:47:11.718Z,99554.54
2019-05-26T18:51:16.177Z,99558.92
2019-05-26T18:55:20.752Z,99555.94
2019-05-26T18:59:24.964Z,99561.56
2019-05-26T19:03:29.204Z,99576.96
2019-05-26T19:07:33.556Z,99572.69
2019-05-26T19:11:37.818Z,99577.63
2019-05-26T19:15:42.103Z,99577.19
2019-05-26T19:19:46.622Z,99587.89
2019-05-26T19:23:51.238Z,99590.25
2019-05-26T19:27:55.532Z,99599.69
2019-05-26T19:31:59.784Z,99586.42
2019-05-26T19:36:09.050Z,99584.70
2019-05-26T19:40:11.156Z,99592.45
2019-05-26T19:44:15.555Z,99585.97
2019-05-26T19:48:35.025Z,99589.19
2019-05-26T19:52:28.317Z,99583.48
2019-05-26T19:56:41.142Z,99580.33
2019-05-26T20:00:47.274Z,99572.91
2019-05-26T20:04:51.898Z,99578.73
2019-05-26T20:09:00.097Z,99568.51
2019-05-26T20:13:40.378Z,99572.52
2019-05-26T20:17:48.995Z,99565.09
2019-05-26T20:22:09.268Z,99570.63
2019-05-26T20:26:14.462Z,99569.89
2019-05-26T20:30:33.523Z,99577.57
2019-05-26T20:34:49.353Z,99584.00
2019-05-26T20:38:57.632Z,99581.98
2019-05-26T20:43:02.839Z,99587.07
2019-05-26T20:47:07.136Z,99589.45
2019-05-26T20:51:11.344Z,99585.11
2019-05-26T20:55:15.943Z,99582.14
2019-05-26T20:59:20.493Z,99585.02
2019-05-26T21:03:24.803Z,99583.00
2019-05-26T21:07:29.898Z,99582.20
2019-05-26T21:11:34.276Z,99574.83
2019-05-26T21:15:38.601Z,99579.82
2019-05-26T21:19:43.002Z,99591.08
2019-05-26T21:23:47.303Z,99587.18
2019-05-26T21:27:54.824Z,99592.62
2019-05-26T21:31:59.061Z,99591.84
2019-05-26T21:36:03.378Z,99594.66
2019-05-26T21:40:08.665Z,99592.62
2019-05-26T21:44:13.064Z,99586.92
2019-05-26T21:48:17.317Z,99584.84
2019-05-26T21:52:21.613Z,99591.41
2019-05-26T21:56:25.937Z,99584.25
2019-05-26T22:00:32.702Z,99576.77
2019-05-26T22:04:37.710Z,99568.53
2019-05-26T22:08:41.950Z,99573.98
2019-05-26T22:12:46.189Z,99577.19
2019-05-26T22:16:50.444Z,99575.38
2019-05-26T22:25:09.036Z,99561.16
2019-05-26T22:29:13.371Z,99560.36
2019-05-26T22:33:17.851Z,99557.38
2019-05-26T22:37:22.215Z,99548.67
2019-05-26T22:41:27.578Z,99546.64
2019-05-26T22:45:32.117Z,99540.44
2019-05-26T22:49:36.944Z,99530.23
2019-05-26T22:53:41.313Z,99531.95
2019-05-26T22:57:45.758Z,99532.90
2019-05-26T23:01:50.128Z,99527.25
2019-05-26T23:05:55.021Z,99525.22
2019-05-26T23:10:02.594Z,99520.47
2019-05-26T23:14:05.758Z,99523.28
2019-05-26T23:18:10.166Z,99522.91
2019-05-26T23:22:14.607Z,99517.83
2019-05-26T23:26:18.962Z,99515.66
2019-05-26T23:30:23.645Z,99516.98
2019-05-26T23:34:27.995Z,99519.27
2019-05-26T23:38:33.413Z,99521.89
2019-05-26T23:42:37.772Z,99521.52
2019-05-26T23:46:42.140Z,99516.29
2019-05-26T23:50:46.618Z,99514.56
2019-05-26T23:54:50.940Z,99505.22
2019-05-26T23:58:55.469Z,99497.22
